sensor_id;sensor_type;location;lat;lon;timestamp;temperature;humidity
43227;DHT22;28839;52.404;9.808;2023-05-20T00:03:22;12.10;99.90
43227;DHT22;28839;52.404;9.808;2023-05-20T00:10:16;12.00;99.90
43227;DHT22;28839;52.404;9.808;2023-05-20T00:17:10;12.00;99.90
43227;DHT22;28839;52.404;9.808;2023-05-20T00:24:05;11.90;99.90
43227;DHT22;28839;52.404;9.808;2023-05-20T00:30:59;11.80;99.90
43227;DHT22;28839;52.404;9.808;2023-05-20T00:37:53;11.80;99.90
43227;DHT22;28839;52.404;9.808;2023-05-20T00:44:48;11.60;99.90
43227;DHT22;28839;52.404;9.808;2023-05-20T00:51:42;11.50;99.90
43227;DHT22;28839;52.404;9.808;2023-05-20T00:58:36;11.40;99.90
43227;DHT22;28839;52.404;9.808;2023-05-20T01:05:31;11.30;99.90
43227;DHT22;28839;52.404;9.808;2023-05-20T01:12:27;11.30;99.90
43227;DHT22;28839;52.404;9.808;2023-05-20T01:19:30;11.30;99.90
43227;DHT22;28839;52.404;9.808;2023-05-20T01:26:27;11.20;99.90
43227;DHT22;28839;52.404;9.808;2023-05-20T01:33:22;11.10;99.90
43227;DHT22;28839;52.404;9.808;2023-05-20T01:40:18;10.90;99.90
43227;DHT22;28839;52.404;9.808;2023-05-20T01:47:13;10.90;99.90
43227;DHT22;28839;52.404;9.808;2023-05-20T01:54:07;10.80;99.90
43227;DHT22;28839;52.404;9.808;2023-05-20T02:01:01;10.70;99.90
43227;DHT22;28839;52.404;9.808;2023-05-20T02:07:56;10.70;99.90
43227;DHT22;28839;52.404;9.808;2023-05-20T02:14:50;10.50;99.90
43227;DHT22;28839;52.404;9.808;2023-05-20T02:21:44;10.30;99.90
43227;DHT22;28839;52.404;9.808;2023-05-20T02:28:40;10.30;99.90
43227;DHT22;28839;52.404;9.808;2023-05-20T02:35:38;10.30;99.90
43227;DHT22;28839;52.404;9.808;2023-05-20T02:42:31;10.30;99.90
43227;DHT22;28839;52.404;9.808;2023-05-20T02:49:27;10.20;99.90
43227;DHT22;28839;52.404;9.808;2023-05-20T02:56:20;10.10;99.90
43227;DHT22;28839;52.404;9.808;2023-05-20T03:03:16;10.20;99.90
43227;DHT22;28839;52.404;9.808;2023-05-20T03:10:11;10.30;99.90
43227;DHT22;28839;52.404;9.808;2023-05-20T03:17:05;10.20;99.90
43227;DHT22;28839;52.404;9.808;2023-05-20T03:23:58;10.20;99.90
43227;DHT22;28839;52.404;9.808;2023-05-20T03:30:54;10.20;99.90
43227;DHT22;28839;52.404;9.808;2023-05-20T03:37:47;10.20;99.90
43227;DHT22;28839;52.404;9.808;2023-05-20T03:44:43;10.20;99.90
43227;DHT22;28839;52.404;9.808;2023-05-20T03:51:38;10.40;99.90
43227;DHT22;28839;52.404;9.808;2023-05-20T03:58:32;10.40;99.90
43227;DHT22;28839;52.404;9.808;2023-05-20T04:05:26;10.50;99.90
43227;DHT22;28839;52.404;9.808;2023-05-20T04:12:21;10.50;99.90
43227;DHT22;28839;52.404;9.808;2023-05-20T04:19:17;10.40;99.90
43227;DHT22;28839;52.404;9.808;2023-05-20T04:26:11;10.50;99.90
43227;DHT22;28839;52.404;9.808;2023-05-20T04:33:07;10.50;99.90
43227;DHT22;28839;52.404;9.808;2023-05-20T04:40:01;10.60;99.90
43227;DHT22;28839;52.404;9.808;2023-05-20T04:46:58;10.70;99.90
43227;DHT22;28839;52.404;9.808;2023-05-20T04:53:53;10.80;99.90
43227;DHT22;28839;52.404;9.808;2023-05-20T05:00:46;10.80;99.90
43227;DHT22;28839;52.404;9.808;2023-05-20T05:07:40;11.00;99.90
43227;DHT22;28839;52.404;9.808;2023-05-20T05:14:35;11.20;99.90
43227;DHT22;28839;52.404;9.808;2023-05-20T05:21:29;11.30;99.90
43227;DHT22;28839;52.404;9.808;2023-05-20T05:28:24;11.30;99.90
43227;DHT22;28839;52.404;9.808;2023-05-20T05:35:19;11.50;99.90
43227;DHT22;28839;52.404;9.808;2023-05-20T05:42:13;11.60;99.90
43227;DHT22;28839;52.404;9.808;2023-05-20T05:49:06;11.60;99.90
43227;DHT22;28839;52.404;9.808;2023-05-20T05:56:02;11.70;99.90
43227;DHT22;28839;52.404;9.808;2023-05-20T06:02:55;11.90;99.90
43227;DHT22;28839;52.404;9.808;2023-05-20T06:09:49;12.00;99.90
43227;DHT22;28839;52.404;9.808;2023-05-20T06:16:44;12.20;99.90
43227;DHT22;28839;52.404;9.808;2023-05-20T06:23:38;12.30;99.90
43227;DHT22;28839;52.404;9.808;2023-05-20T06:30:32;12.70;99.90
43227;DHT22;28839;52.404;9.808;2023-05-20T06:37:27;13.20;99.90
43227;DHT22;28839;52.404;9.808;2023-05-20T06:44:21;13.80;99.90
43227;DHT22;28839;52.404;9.808;2023-05-20T06:51:17;14.50;99.90
43227;DHT22;28839;52.404;9.808;2023-05-20T06:58:13;15.10;99.90
43227;DHT22;28839;52.404;9.808;2023-05-20T07:05:07;14.90;99.90
43227;DHT22;28839;52.404;9.808;2023-05-20T07:12:01;15.80;99.90
43227;DHT22;28839;52.404;9.808;2023-05-20T07:18:56;16.70;99.90
43227;DHT22;28839;52.404;9.808;2023-05-20T07:25:51;17.10;99.90
43227;DHT22;28839;52.404;9.808;2023-05-20T07:32:45;17.50;99.90
43227;DHT22;28839;52.404;9.808;2023-05-20T07:39:40;17.30;99.90
43227;DHT22;28839;52.404;9.808;2023-05-20T07:46:34;17.40;99.90
43227;DHT22;28839;52.404;9.808;2023-05-20T07:53:29;17.70;99.90
43227;DHT22;28839;52.404;9.808;2023-05-20T08:00:24;17.10;99.90
43227;DHT22;28839;52.404;9.808;2023-05-20T08:07:18;16.50;99.90
43227;DHT22;28839;52.404;9.808;2023-05-20T08:14:12;16.10;99.90
43227;DHT22;28839;52.404;9.808;2023-05-20T08:21:07;16.60;99.90
43227;DHT22;28839;52.404;9.808;2023-05-20T08:28:01;17.10;99.90
43227;DHT22;28839;52.404;9.808;2023-05-20T08:34:57;17.10;99.90
43227;DHT22;28839;52.404;9.808;2023-05-20T08:41:54;17.20;99.90
43227;DHT22;28839;52.404;9.808;2023-05-20T08:48:48;17.10;99.90
43227;DHT22;28839;52.404;9.808;2023-05-20T08:55:45;18.10;99.90
43227;DHT22;28839;52.404;9.808;2023-05-20T09:02:42;17.00;99.90
43227;DHT22;28839;52.404;9.808;2023-05-20T09:09:36;16.30;99.90
43227;DHT22;28839;52.404;9.808;2023-05-20T09:16:29;16.10;99.90
43227;DHT22;28839;52.404;9.808;2023-05-20T09:23:25;16.20;99.90
43227;DHT22;28839;52.404;9.808;2023-05-20T09:30:19;16.00;99.90
43227;DHT22;28839;52.404;9.808;2023-05-20T09:37:13;15.40;99.90
43227;DHT22;28839;52.404;9.808;2023-05-20T09:44:11;15.30;99.90
43227;DHT22;28839;52.404;9.808;2023-05-20T09:51:07;15.20;99.90
43227;DHT22;28839;52.404;9.808;2023-05-20T09:58:02;15.60;99.90
43227;DHT22;28839;52.404;9.808;2023-05-20T10:04:59;16.30;99.90
43227;DHT22;28839;52.404;9.808;2023-05-20T10:12:01;16.00;99.90
43227;DHT22;28839;52.404;9.808;2023-05-20T10:19:03;15.80;99.90
43227;DHT22;28839;52.404;9.808;2023-05-20T10:26:05;15.40;99.90
43227;DHT22;28839;52.404;9.808;2023-05-20T10:33:03;15.20;99.90
43227;DHT22;28839;52.404;9.808;2023-05-20T10:40:08;15.30;99.90
43227;DHT22;28839;52.404;9.808;2023-05-20T10:47:04;15.80;99.90
43227;DHT22;28839;52.404;9.808;2023-05-20T10:53:58;15.90;99.90
43227;DHT22;28839;52.404;9.808;2023-05-20T11:00:53;16.20;99.90
43227;DHT22;28839;52.404;9.808;2023-05-20T11:07:48;16.50;99.90
43227;DHT22;28839;52.404;9.808;2023-05-20T11:14:42;16.50;99.90
43227;DHT22;28839;52.404;9.808;2023-05-20T11:21:42;16.60;99.90
43227;DHT22;28839;52.404;9.808;2023-05-20T11:28:37;16.20;99.90
43227;DHT22;28839;52.404;9.808;2023-05-20T11:35:32;16.20;99.90
43227;DHT22;28839;52.404;9.808;2023-05-20T11:42:26;16.10;99.90
43227;DHT22;28839;52.404;9.808;2023-05-20T11:49:22;16.30;99.90
43227;DHT22;28839;52.404;9.808;2023-05-20T11:56:15;16.30;99.90
43227;DHT22;28839;52.404;9.808;2023-05-20T12:03:09;16.30;99.90
43227;DHT22;28839;52.404;9.808;2023-05-20T12:10:06;16.40;99.90
43227;DHT22;28839;52.404;9.808;2023-05-20T12:17:00;17.00;99.90
43227;DHT22;28839;52.404;9.808;2023-05-20T12:23:54;16.70;99.90
43227;DHT22;28839;52.404;9.808;2023-05-20T12:30:50;16.70;99.90
43227;DHT22;28839;52.404;9.808;2023-05-20T12:37:44;16.50;99.90
43227;DHT22;28839;52.404;9.808;2023-05-20T12:44:38;16.90;99.90
43227;DHT22;28839;52.404;9.808;2023-05-20T12:51:33;16.70;99.90
43227;DHT22;28839;52.404;9.808;2023-05-20T12:58:27;16.60;99.90
43227;DHT22;28839;52.404;9.808;2023-05-20T13:05:21;16.60;99.90
43227;DHT22;28839;52.404;9.808;2023-05-20T13:12:16;17.00;99.90
43227;DHT22;28839;52.404;9.808;2023-05-20T13:19:10;16.90;99.90
43227;DHT22;28839;52.404;9.808;2023-05-20T13:26:04;17.00;99.90
43227;DHT22;28839;52.404;9.808;2023-05-20T13:32:59;16.70;99.90
43227;DHT22;28839;52.404;9.808;2023-05-20T13:39:53;16.70;99.90
43227;DHT22;28839;52.404;9.808;2023-05-20T13:46:47;16.80;99.90
43227;DHT22;28839;52.404;9.808;2023-05-20T13:53:42;16.90;99.90
43227;DHT22;28839;52.404;9.808;2023-05-20T14:00:36;16.50;99.90
43227;DHT22;28839;52.404;9.808;2023-05-20T14:07:30;16.50;99.90
43227;DHT22;28839;52.404;9.808;2023-05-20T14:14:25;16.70;99.90
43227;DHT22;28839;52.404;9.808;2023-05-20T14:21:19;17.10;99.90
43227;DHT22;28839;52.404;9.808;2023-05-20T14:28:12;17.30;99.90
43227;DHT22;28839;52.404;9.808;2023-05-20T14:35:08;17.00;99.90
43227;DHT22;28839;52.404;9.808;2023-05-20T14:42:03;16.70;99.90
43227;DHT22;28839;52.404;9.808;2023-05-20T14:48:56;16.80;99.90
43227;DHT22;28839;52.404;9.808;2023-05-20T14:55:52;16.80;99.90
43227;DHT22;28839;52.404;9.808;2023-05-20T15:02:45;17.00;99.90
43227;DHT22;28839;52.404;9.808;2023-05-20T15:09:39;16.90;99.90
43227;DHT22;28839;52.404;9.808;2023-05-20T15:16:35;16.70;99.90
43227;DHT22;28839;52.404;9.808;2023-05-20T15:23:28;16.80;99.90
43227;DHT22;28839;52.404;9.808;2023-05-20T15:30:22;16.70;99.90
43227;DHT22;28839;52.404;9.808;2023-05-20T15:37:18;16.70;99.90
43227;DHT22;28839;52.404;9.808;2023-05-20T15:44:12;16.60;99.90
43227;DHT22;28839;52.404;9.808;2023-05-20T15:51:05;16.80;99.90
43227;DHT22;28839;52.404;9.808;2023-05-20T15:58:01;16.80;99.90
43227;DHT22;28839;52.404;9.808;2023-05-20T16:04:55;16.90;99.90
43227;DHT22;28839;52.404;9.808;2023-05-20T16:11:50;16.90;99.90
43227;DHT22;28839;52.404;9.808;2023-05-20T16:18:46;16.90;99.90
43227;DHT22;28839;52.404;9.808;2023-05-20T16:25:39;17.00;99.90
43227;DHT22;28839;52.404;9.808;2023-05-20T16:32:33;16.90;99.90
43227;DHT22;28839;52.404;9.808;2023-05-20T16:39:28;16.90;99.90
43227;DHT22;28839;52.404;9.808;2023-05-20T16:46:22;16.80;99.90
43227;DHT22;28839;52.404;9.808;2023-05-20T16:53:16;16.90;99.90
43227;DHT22;28839;52.404;9.808;2023-05-20T17:00:12;17.00;99.90
43227;DHT22;28839;52.404;9.808;2023-05-20T17:07:06;16.90;99.90
43227;DHT22;28839;52.404;9.808;2023-05-20T17:14:01;16.90;99.90
43227;DHT22;28839;52.404;9.808;2023-05-20T17:20:58;17.00;99.90
43227;DHT22;28839;52.404;9.808;2023-05-20T17:27:52;17.00;99.90
43227;DHT22;28839;52.404;9.808;2023-05-20T17:34:46;17.00;99.90
43227;DHT22;28839;52.404;9.808;2023-05-20T17:41:41;16.80;99.90
43227;DHT22;28839;52.404;9.808;2023-05-20T17:48:35;16.80;99.90
43227;DHT22;28839;52.404;9.808;2023-05-20T17:55:28;16.90;99.90
43227;DHT22;28839;52.404;9.808;2023-05-20T18:02:25;16.80;99.90
43227;DHT22;28839;52.404;9.808;2023-05-20T18:09:19;16.80;99.90
43227;DHT22;28839;52.404;9.808;2023-05-20T18:16:12;16.90;99.90
43227;DHT22;28839;52.404;9.808;2023-05-20T18:23:08;16.90;99.90
43227;DHT22;28839;52.404;9.808;2023-05-20T18:30:02;16.90;99.90
43227;DHT22;28839;52.404;9.808;2023-05-20T18:36:56;16.80;99.90
43227;DHT22;28839;52.404;9.808;2023-05-20T18:43:51;16.80;99.90
43227;DHT22;28839;52.404;9.808;2023-05-20T18:50:45;16.80;99.90
43227;DHT22;28839;52.404;9.808;2023-05-20T18:57:38;16.80;99.90
43227;DHT22;28839;52.404;9.808;2023-05-20T19:04:34;16.70;99.90
43227;DHT22;28839;52.404;9.808;2023-05-20T19:11:27;16.60;99.90
43227;DHT22;28839;52.404;9.808;2023-05-20T19:18:21;16.60;99.90
43227;DHT22;28839;52.404;9.808;2023-05-20T19:25:16;16.50;99.90
43227;DHT22;28839;52.404;9.808;2023-05-20T19:32:10;16.30;99.90
43227;DHT22;28839;52.404;9.808;2023-05-20T19:39:04;16.20;99.90
43227;DHT22;28839;52.404;9.808;2023-05-20T19:46:00;16.10;99.90
43227;DHT22;28839;52.404;9.808;2023-05-20T19:52:54;16.00;99.90
43227;DHT22;28839;52.404;9.808;2023-05-20T19:59:48;15.80;99.90
43227;DHT22;28839;52.404;9.808;2023-05-20T20:06:43;15.60;99.90
43227;DHT22;28839;52.404;9.808;2023-05-20T20:13:38;15.60;99.90
43227;DHT22;28839;52.404;9.808;2023-05-20T20:20:32;15.40;99.90
43227;DHT22;28839;52.404;9.808;2023-05-20T20:27:32;15.30;99.90
43227;DHT22;28839;52.404;9.808;2023-05-20T20:34:26;15.30;99.90
43227;DHT22;28839;52.404;9.808;2023-05-20T20:41:20;15.10;99.90
43227;DHT22;28839;52.404;9.808;2023-05-20T20:48:15;15.20;99.90
43227;DHT22;28839;52.404;9.808;2023-05-20T20:55:10;15.20;99.90
43227;DHT22;28839;52.404;9.808;2023-05-20T21:02:04;15.00;99.90
43227;DHT22;28839;52.404;9.808;2023-05-20T21:08:59;15.00;99.90
43227;DHT22;28839;52.404;9.808;2023-05-20T21:15:54;14.90;99.90
43227;DHT22;28839;52.404;9.808;2023-05-20T21:22:48;14.80;99.90
43227;DHT22;28839;52.404;9.808;2023-05-20T21:29:43;14.50;99.90
43227;DHT22;28839;52.404;9.808;2023-05-20T21:36:37;14.30;99.90
43227;DHT22;28839;52.404;9.808;2023-05-20T21:43:31;14.40;99.90
43227;DHT22;28839;52.404;9.808;2023-05-20T21:50:26;14.50;99.90
43227;DHT22;28839;52.404;9.808;2023-05-20T21:57:20;14.40;99.90
43227;DHT22;28839;52.404;9.808;2023-05-20T22:04:14;14.30;99.90
43227;DHT22;28839;52.404;9.808;2023-05-20T22:11:10;14.30;99.90
43227;DHT22;28839;52.404;9.808;2023-05-20T22:18:04;14.10;99.90
43227;DHT22;28839;52.404;9.808;2023-05-20T22:24:58;14.00;99.90
43227;DHT22;28839;52.404;9.808;2023-05-20T22:31:53;13.90;99.90
43227;DHT22;28839;52.404;9.808;2023-05-20T22:38:47;13.70;99.90
43227;DHT22;28839;52.404;9.808;2023-05-20T22:45:41;13.60;99.90
43227;DHT22;28839;52.404;9.808;2023-05-20T22:52:36;13.60;99.90
43227;DHT22;28839;52.404;9.808;2023-05-20T22:59:30;13.60;99.90
43227;DHT22;28839;52.404;9.808;2023-05-20T23:06:24;13.40;99.90
43227;DHT22;28839;52.404;9.808;2023-05-20T23:13:19;13.50;99.90
43227;DHT22;28839;52.404;9.808;2023-05-20T23:20:13;13.40;99.90
43227;DHT22;28839;52.404;9.808;2023-05-20T23:27:10;13.50;99.90
43227;DHT22;28839;52.404;9.808;2023-05-20T23:34:05;13.40;99.90
43227;DHT22;28839;52.404;9.808;2023-05-20T23:40:59;13.60;99.90
43227;DHT22;28839;52.404;9.808;2023-05-20T23:47:53;13.40;99.90
43227;DHT22;28839;52.404;9.808;2023-05-20T23:54:48;13.50;99.90
